sensor_id;sensor_type;location;lat;lon;timestamp;P1;durP1;ratioP1;P2;durP2;ratioP2
3133;SDS011;1577;49.912;10.924;2022-09-09T00:03:32;2.50;;;1.03;;
3133;SDS011;1577;49.912;10.924;2022-09-09T00:06:21;2.00;;;0.90;;
3133;SDS011;1577;49.912;10.924;2022-09-09T00:11:54;4.30;;;1.00;;
3133;SDS011;1577;49.912;10.924;2022-09-09T00:14:34;2.40;;;1.10;;
3133;SDS011;1577;49.912;10.924;2022-09-09T00:17:31;3.83;;;2.30;;
3133;SDS011;1577;49.912;10.924;2022-09-09T00:20:12;1.80;;;1.03;;
3133;SDS011;1577;49.912;10.924;2022-09-09T00:22:44;1.73;;;1.00;;
3133;SDS011;1577;49.912;10.924;2022-09-09T00:28:13;1.67;;;0.90;;
3133;SDS011;1577;49.912;10.924;2022-09-09T00:30:47;3.37;;;1.20;;
3133;SDS011;1577;49.912;10.924;2022-09-09T00:33:13;1.83;;;1.13;;
3133;SDS011;1577;49.912;10.924;2022-09-09T00:35:54;4.50;;;1.27;;
3133;SDS011;1577;49.912;10.924;2022-09-09T00:38:24;2.37;;;1.10;;
3133;SDS011;1577;49.912;10.924;2022-09-09T00:40:58;5.00;;;1.13;;
3133;SDS011;1577;49.912;10.924;2022-09-09T00:43:33;6.07;;;1.40;;
3133;SDS011;1577;49.912;10.924;2022-09-09T00:52:03;1.70;;;1.00;;
3133;SDS011;1577;49.912;10.924;2022-09-09T00:54:49;1.80;;;1.10;;
3133;SDS011;1577;49.912;10.924;2022-09-09T01:05:19;2.30;;;1.20;;
3133;SDS011;1577;49.912;10.924;2022-09-09T01:07:49;1.77;;;1.00;;
3133;SDS011;1577;49.912;10.924;2022-09-09T01:10:21;2.83;;;1.20;;
3133;SDS011;1577;49.912;10.924;2022-09-09T01:13:13;2.50;;;1.00;;
3133;SDS011;1577;49.912;10.924;2022-09-09T01:15:46;7.80;;;1.40;;
3133;SDS011;1577;49.912;10.924;2022-09-09T01:18:15;1.40;;;1.10;;
3133;SDS011;1577;49.912;10.924;2022-09-09T01:23:28;2.07;;;1.10;;
3133;SDS011;1577;49.912;10.924;2022-09-09T01:28:44;4.97;;;1.43;;
3133;SDS011;1577;49.912;10.924;2022-09-09T01:31:14;2.73;;;1.27;;
3133;SDS011;1577;49.912;10.924;2022-09-09T01:33:43;2.23;;;1.23;;
3133;SDS011;1577;49.912;10.924;2022-09-09T01:38:51;2.63;;;1.10;;
3133;SDS011;1577;49.912;10.924;2022-09-09T01:41:17;6.57;;;1.10;;
3133;SDS011;1577;49.912;10.924;2022-09-09T01:43:43;2.17;;;1.40;;
3133;SDS011;1577;49.912;10.924;2022-09-09T01:46:08;1.60;;;1.07;;
3133;SDS011;1577;49.912;10.924;2022-09-09T01:48:36;3.20;;;1.20;;
3133;SDS011;1577;49.912;10.924;2022-09-09T01:51:02;2.53;;;1.30;;
3133;SDS011;1577;49.912;10.924;2022-09-09T01:53:28;2.80;;;1.10;;
3133;SDS011;1577;49.912;10.924;2022-09-09T02:04:14;3.27;;;0.93;;
3133;SDS011;1577;49.912;10.924;2022-09-09T02:06:52;2.40;;;1.13;;
3133;SDS011;1577;49.912;10.924;2022-09-09T02:09:24;4.03;;;1.57;;
3133;SDS011;1577;49.912;10.924;2022-09-09T02:11:54;3.23;;;1.20;;
3133;SDS011;1577;49.912;10.924;2022-09-09T02:14:25;1.50;;;1.10;;
3133;SDS011;1577;49.912;10.924;2022-09-09T02:16:59;1.00;;;0.90;;
3133;SDS011;1577;49.912;10.924;2022-09-09T02:19:32;3.33;;;1.20;;
3133;SDS011;1577;49.912;10.924;2022-09-09T02:22:03;5.00;;;1.00;;
3133;SDS011;1577;49.912;10.924;2022-09-09T02:24:30;1.13;;;0.90;;
3133;SDS011;1577;49.912;10.924;2022-09-09T02:26:59;4.30;;;0.90;;
3133;SDS011;1577;49.912;10.924;2022-09-09T02:29:30;2.20;;;1.33;;
3133;SDS011;1577;49.912;10.924;2022-09-09T02:32:00;1.40;;;0.90;;
3133;SDS011;1577;49.912;10.924;2022-09-09T02:34:29;3.10;;;1.30;;
3133;SDS011;1577;49.912;10.924;2022-09-09T02:36:57;2.93;;;1.10;;
3133;SDS011;1577;49.912;10.924;2022-09-09T02:39:24;4.73;;;1.10;;
3133;SDS011;1577;49.912;10.924;2022-09-09T02:41:50;4.40;;;1.20;;
3133;SDS011;1577;49.912;10.924;2022-09-09T02:44:17;3.60;;;1.27;;
3133;SDS011;1577;49.912;10.924;2022-09-09T02:49:27;1.20;;;0.97;;
3133;SDS011;1577;49.912;10.924;2022-09-09T02:54:33;2.20;;;1.30;;
3133;SDS011;1577;49.912;10.924;2022-09-09T02:57:04;1.67;;;1.27;;
3133;SDS011;1577;49.912;10.924;2022-09-09T02:59:33;1.83;;;1.20;;
3133;SDS011;1577;49.912;10.924;2022-09-09T03:01:59;1.97;;;1.40;;
3133;SDS011;1577;49.912;10.924;2022-09-09T03:04:24;2.33;;;1.20;;
3133;SDS011;1577;49.912;10.924;2022-09-09T03:06:50;1.97;;;1.23;;
3133;SDS011;1577;49.912;10.924;2022-09-09T03:09:16;3.53;;;2.33;;
3133;SDS011;1577;49.912;10.924;2022-09-09T03:11:41;4.60;;;1.10;;
3133;SDS011;1577;49.912;10.924;2022-09-09T03:14:07;3.43;;;1.50;;
3133;SDS011;1577;49.912;10.924;2022-09-09T03:16:33;2.90;;;1.53;;
3133;SDS011;1577;49.912;10.924;2022-09-09T03:18:59;4.27;;;1.27;;
3133;SDS011;1577;49.912;10.924;2022-09-09T03:21:25;3.03;;;1.93;;
3133;SDS011;1577;49.912;10.924;2022-09-09T03:23:51;4.07;;;1.40;;
3133;SDS011;1577;49.912;10.924;2022-09-09T03:26:17;5.43;;;1.60;;
3133;SDS011;1577;49.912;10.924;2022-09-09T03:28:42;1.80;;;1.20;;
3133;SDS011;1577;49.912;10.924;2022-09-09T03:31:09;8.17;;;1.70;;
3133;SDS011;1577;49.912;10.924;2022-09-09T03:33:36;3.30;;;1.40;;
3133;SDS011;1577;49.912;10.924;2022-09-09T03:36:02;3.77;;;1.30;;
3133;SDS011;1577;49.912;10.924;2022-09-09T03:38:29;2.70;;;1.40;;
3133;SDS011;1577;49.912;10.924;2022-09-09T03:40:55;4.23;;;1.40;;
3133;SDS011;1577;49.912;10.924;2022-09-09T03:43:22;2.87;;;1.23;;
3133;SDS011;1577;49.912;10.924;2022-09-09T03:45:51;2.37;;;1.10;;
3133;SDS011;1577;49.912;10.924;2022-09-09T03:48:18;1.43;;;1.20;;
3133;SDS011;1577;49.912;10.924;2022-09-09T03:50:45;1.10;;;1.00;;
3133;SDS011;1577;49.912;10.924;2022-09-09T03:53:15;3.93;;;1.30;;
3133;SDS011;1577;49.912;10.924;2022-09-09T03:55:44;1.43;;;1.30;;
3133;SDS011;1577;49.912;10.924;2022-09-09T03:58:11;1.60;;;1.13;;
3133;SDS011;1577;49.912;10.924;2022-09-09T04:00:41;2.53;;;1.07;;
3133;SDS011;1577;49.912;10.924;2022-09-09T04:03:09;2.30;;;1.33;;
3133;SDS011;1577;49.912;10.924;2022-09-09T04:05:35;5.07;;;1.30;;
3133;SDS011;1577;49.912;10.924;2022-09-09T04:08:04;1.63;;;1.30;;
3133;SDS011;1577;49.912;10.924;2022-09-09T04:10:33;2.83;;;1.13;;
3133;SDS011;1577;49.912;10.924;2022-09-09T04:13:01;1.77;;;1.40;;
3133;SDS011;1577;49.912;10.924;2022-09-09T04:15:27;2.10;;;1.20;;
3133;SDS011;1577;49.912;10.924;2022-09-09T04:17:53;2.60;;;1.27;;
3133;SDS011;1577;49.912;10.924;2022-09-09T04:20:18;2.50;;;1.20;;
3133;SDS011;1577;49.912;10.924;2022-09-09T04:22:44;6.90;;;1.60;;
3133;SDS011;1577;49.912;10.924;2022-09-09T04:25:09;2.53;;;1.50;;
3133;SDS011;1577;49.912;10.924;2022-09-09T04:27:35;1.40;;;1.10;;
3133;SDS011;1577;49.912;10.924;2022-09-09T04:30:01;1.87;;;1.10;;
3133;SDS011;1577;49.912;10.924;2022-09-09T04:32:27;6.37;;;1.20;;
3133;SDS011;1577;49.912;10.924;2022-09-09T04:34:52;6.47;;;1.30;;
3133;SDS011;1577;49.912;10.924;2022-09-09T04:37:18;2.40;;;1.50;;
3133;SDS011;1577;49.912;10.924;2022-09-09T04:39:44;1.40;;;1.20;;
3133;SDS011;1577;49.912;10.924;2022-09-09T04:42:10;1.40;;;1.10;;
3133;SDS011;1577;49.912;10.924;2022-09-09T04:44:36;2.60;;;1.33;;
3133;SDS011;1577;49.912;10.924;2022-09-09T04:47:01;1.67;;;1.20;;
3133;SDS011;1577;49.912;10.924;2022-09-09T04:49:27;2.20;;;1.30;;
3133;SDS011;1577;49.912;10.924;2022-09-09T04:51:53;2.80;;;1.30;;
3133;SDS011;1577;49.912;10.924;2022-09-09T04:54:18;5.17;;;1.40;;
3133;SDS011;1577;49.912;10.924;2022-09-09T04:56:44;2.10;;;1.53;;
3133;SDS011;1577;49.912;10.924;2022-09-09T04:59:09;3.50;;;1.40;;
3133;SDS011;1577;49.912;10.924;2022-09-09T05:01:35;2.70;;;1.30;;
3133;SDS011;1577;49.912;10.924;2022-09-09T05:04:01;5.70;;;1.33;;
3133;SDS011;1577;49.912;10.924;2022-09-09T05:06:27;2.60;;;1.63;;
3133;SDS011;1577;49.912;10.924;2022-09-09T05:08:56;1.90;;;1.20;;
3133;SDS011;1577;49.912;10.924;2022-09-09T05:11:26;3.33;;;1.20;;
3133;SDS011;1577;49.912;10.924;2022-09-09T05:13:54;1.20;;;1.10;;
3133;SDS011;1577;49.912;10.924;2022-09-09T05:16:21;2.23;;;1.10;;
3133;SDS011;1577;49.912;10.924;2022-09-09T05:18:47;2.00;;;1.17;;
3133;SDS011;1577;49.912;10.924;2022-09-09T05:21:16;3.17;;;1.30;;
3133;SDS011;1577;49.912;10.924;2022-09-09T05:23:42;3.63;;;1.50;;
3133;SDS011;1577;49.912;10.924;2022-09-09T05:26:11;4.00;;;1.20;;
3133;SDS011;1577;49.912;10.924;2022-09-09T05:28:39;1.50;;;1.00;;
3133;SDS011;1577;49.912;10.924;2022-09-09T05:31:06;6.30;;;1.13;;
3133;SDS011;1577;49.912;10.924;2022-09-09T05:33:33;3.67;;;1.37;;
3133;SDS011;1577;49.912;10.924;2022-09-09T05:36:00;1.80;;;1.13;;
3133;SDS011;1577;49.912;10.924;2022-09-09T05:38:29;1.47;;;1.20;;
3133;SDS011;1577;49.912;10.924;2022-09-09T05:40:55;5.07;;;1.30;;
3133;SDS011;1577;49.912;10.924;2022-09-09T05:43:22;2.20;;;1.50;;
3133;SDS011;1577;49.912;10.924;2022-09-09T05:45:48;2.87;;;1.30;;
3133;SDS011;1577;49.912;10.924;2022-09-09T05:48:23;2.57;;;1.50;;
3133;SDS011;1577;49.912;10.924;2022-09-09T05:50:52;1.93;;;1.37;;
3133;SDS011;1577;49.912;10.924;2022-09-09T05:53:19;8.13;;;1.53;;
3133;SDS011;1577;49.912;10.924;2022-09-09T05:55:45;1.40;;;1.10;;
3133;SDS011;1577;49.912;10.924;2022-09-09T05:58:10;4.70;;;1.40;;
3133;SDS011;1577;49.912;10.924;2022-09-09T06:00:36;2.27;;;1.20;;
3133;SDS011;1577;49.912;10.924;2022-09-09T06:03:02;1.90;;;1.23;;
3133;SDS011;1577;49.912;10.924;2022-09-09T06:05:28;2.63;;;1.47;;
3133;SDS011;1577;49.912;10.924;2022-09-09T06:07:54;3.40;;;1.47;;
3133;SDS011;1577;49.912;10.924;2022-09-09T06:10:20;1.67;;;1.10;;
3133;SDS011;1577;49.912;10.924;2022-09-09T06:12:46;2.23;;;1.23;;
3133;SDS011;1577;49.912;10.924;2022-09-09T06:15:12;2.77;;;1.40;;
3133;SDS011;1577;49.912;10.924;2022-09-09T06:17:37;2.47;;;1.40;;
3133;SDS011;1577;49.912;10.924;2022-09-09T06:20:04;1.60;;;1.50;;
3133;SDS011;1577;49.912;10.924;2022-09-09T06:22:30;3.07;;;1.20;;
3133;SDS011;1577;49.912;10.924;2022-09-09T06:24:56;2.43;;;1.60;;
3133;SDS011;1577;49.912;10.924;2022-09-09T06:27:21;2.23;;;1.93;;
3133;SDS011;1577;49.912;10.924;2022-09-09T06:29:47;3.57;;;1.27;;
3133;SDS011;1577;49.912;10.924;2022-09-09T06:32:13;5.20;;;1.43;;
3133;SDS011;1577;49.912;10.924;2022-09-09T06:34:38;1.87;;;1.30;;
3133;SDS011;1577;49.912;10.924;2022-09-09T06:37:04;2.03;;;1.47;;
3133;SDS011;1577;49.912;10.924;2022-09-09T06:39:31;3.17;;;1.30;;
3133;SDS011;1577;49.912;10.924;2022-09-09T06:41:57;2.63;;;1.37;;
3133;SDS011;1577;49.912;10.924;2022-09-09T06:44:23;2.40;;;1.40;;
3133;SDS011;1577;49.912;10.924;2022-09-09T06:46:51;2.17;;;1.37;;
3133;SDS011;1577;49.912;10.924;2022-09-09T06:49:17;2.50;;;1.37;;
3133;SDS011;1577;49.912;10.924;2022-09-09T06:51:43;3.17;;;1.30;;
3133;SDS011;1577;49.912;10.924;2022-09-09T06:54:09;2.10;;;1.43;;
3133;SDS011;1577;49.912;10.924;2022-09-09T06:56:37;4.17;;;1.20;;
3133;SDS011;1577;49.912;10.924;2022-09-09T06:59:05;4.20;;;1.60;;
3133;SDS011;1577;49.912;10.924;2022-09-09T07:01:33;1.80;;;1.00;;
3133;SDS011;1577;49.912;10.924;2022-09-09T07:04:00;1.77;;;1.53;;
3133;SDS011;1577;49.912;10.924;2022-09-09T07:06:28;1.90;;;1.00;;
3133;SDS011;1577;49.912;10.924;2022-09-09T07:08:56;2.50;;;1.37;;
3133;SDS011;1577;49.912;10.924;2022-09-09T07:11:25;3.60;;;1.00;;
3133;SDS011;1577;49.912;10.924;2022-09-09T07:13:56;1.67;;;1.10;;
3133;SDS011;1577;49.912;10.924;2022-09-09T07:16:23;2.23;;;1.20;;
3133;SDS011;1577;49.912;10.924;2022-09-09T07:18:50;6.10;;;1.10;;
3133;SDS011;1577;49.912;10.924;2022-09-09T07:21:16;1.30;;;1.00;;
3133;SDS011;1577;49.912;10.924;2022-09-09T07:23:43;1.53;;;1.00;;
3133;SDS011;1577;49.912;10.924;2022-09-09T07:26:10;3.50;;;1.10;;
3133;SDS011;1577;49.912;10.924;2022-09-09T07:28:41;2.60;;;1.00;;
3133;SDS011;1577;49.912;10.924;2022-09-09T07:31:08;1.90;;;1.40;;
3133;SDS011;1577;49.912;10.924;2022-09-09T07:33:38;3.67;;;1.10;;
3133;SDS011;1577;49.912;10.924;2022-09-09T07:38:43;4.90;;;1.10;;
3133;SDS011;1577;49.912;10.924;2022-09-09T07:41:12;1.60;;;0.90;;
3133;SDS011;1577;49.912;10.924;2022-09-09T07:43:43;2.90;;;1.27;;
3133;SDS011;1577;49.912;10.924;2022-09-09T07:46:10;4.07;;;1.10;;
3133;SDS011;1577;49.912;10.924;2022-09-09T07:48:38;2.33;;;0.90;;
3133;SDS011;1577;49.912;10.924;2022-09-09T07:51:09;2.43;;;0.90;;
3133;SDS011;1577;49.912;10.924;2022-09-09T07:53:37;2.23;;;0.77;;
3133;SDS011;1577;49.912;10.924;2022-09-09T07:56:05;2.53;;;0.93;;
3133;SDS011;1577;49.912;10.924;2022-09-09T07:58:34;2.13;;;1.00;;
3133;SDS011;1577;49.912;10.924;2022-09-09T08:01:05;4.80;;;1.03;;
3133;SDS011;1577;49.912;10.924;2022-09-09T08:03:35;1.40;;;0.83;;
3133;SDS011;1577;49.912;10.924;2022-09-09T08:06:05;1.40;;;0.97;;
3133;SDS011;1577;49.912;10.924;2022-09-09T08:08:32;2.60;;;1.00;;
3133;SDS011;1577;49.912;10.924;2022-09-09T08:11:06;2.07;;;0.80;;
3133;SDS011;1577;49.912;10.924;2022-09-09T08:13:37;2.30;;;1.00;;
3133;SDS011;1577;49.912;10.924;2022-09-09T08:16:07;2.20;;;0.90;;
3133;SDS011;1577;49.912;10.924;2022-09-09T08:18:38;2.63;;;0.80;;
3133;SDS011;1577;49.912;10.924;2022-09-09T08:21:08;3.73;;;1.00;;
3133;SDS011;1577;49.912;10.924;2022-09-09T08:23:41;0.90;;;0.73;;
3133;SDS011;1577;49.912;10.924;2022-09-09T08:26:09;3.20;;;0.90;;
3133;SDS011;1577;49.912;10.924;2022-09-09T08:28:35;4.20;;;1.30;;
3133;SDS011;1577;49.912;10.924;2022-09-09T08:31:06;2.60;;;0.67;;
3133;SDS011;1577;49.912;10.924;2022-09-09T08:33:32;4.70;;;0.87;;
3133;SDS011;1577;49.912;10.924;2022-09-09T08:35:58;2.07;;;0.80;;
3133;SDS011;1577;49.912;10.924;2022-09-09T08:38:24;1.90;;;0.70;;
3133;SDS011;1577;49.912;10.924;2022-09-09T08:40:49;1.67;;;0.70;;
3133;SDS011;1577;49.912;10.924;2022-09-09T08:43:21;3.10;;;0.90;;
3133;SDS011;1577;49.912;10.924;2022-09-09T08:45:57;1.40;;;0.77;;
3133;SDS011;1577;49.912;10.924;2022-09-09T08:51:24;1.63;;;0.60;;
3133;SDS011;1577;49.912;10.924;2022-09-09T08:53:53;3.07;;;0.97;;
3133;SDS011;1577;49.912;10.924;2022-09-09T08:56:23;1.43;;;0.80;;
3133;SDS011;1577;49.912;10.924;2022-09-09T08:58:53;1.57;;;0.70;;
3133;SDS011;1577;49.912;10.924;2022-09-09T09:11:59;1.73;;;0.60;;
3133;SDS011;1577;49.912;10.924;2022-09-09T09:14:30;1.90;;;0.70;;
3133;SDS011;1577;49.912;10.924;2022-09-09T09:17:18;2.43;;;0.90;;
3133;SDS011;1577;49.912;10.924;2022-09-09T09:19:45;2.23;;;1.00;;
3133;SDS011;1577;49.912;10.924;2022-09-09T09:24:45;1.20;;;0.67;;
3133;SDS011;1577;49.912;10.924;2022-09-09T09:27:16;2.03;;;0.80;;
3133;SDS011;1577;49.912;10.924;2022-09-09T09:29:44;2.37;;;0.70;;
3133;SDS011;1577;49.912;10.924;2022-09-09T09:32:11;1.40;;;0.80;;
3133;SDS011;1577;49.912;10.924;2022-09-09T09:34:39;1.50;;;0.70;;
3133;SDS011;1577;49.912;10.924;2022-09-09T09:37:07;1.90;;;0.80;;
3133;SDS011;1577;49.912;10.924;2022-09-09T09:39:38;2.07;;;0.60;;
3133;SDS011;1577;49.912;10.924;2022-09-09T09:42:15;0.90;;;0.60;;
3133;SDS011;1577;49.912;10.924;2022-09-09T09:44:42;2.40;;;0.70;;
3133;SDS011;1577;49.912;10.924;2022-09-09T09:47:10;1.47;;;0.60;;
3133;SDS011;1577;49.912;10.924;2022-09-09T09:49:38;2.10;;;0.77;;
3133;SDS011;1577;49.912;10.924;2022-09-09T09:52:04;1.30;;;0.60;;
3133;SDS011;1577;49.912;10.924;2022-09-09T09:54:32;2.57;;;1.00;;
3133;SDS011;1577;49.912;10.924;2022-09-09T09:57:08;3.00;;;0.80;;
3133;SDS011;1577;49.912;10.924;2022-09-09T09:59:34;1.73;;;0.80;;
3133;SDS011;1577;49.912;10.924;2022-09-09T10:04:42;1.50;;;0.63;;
3133;SDS011;1577;49.912;10.924;2022-09-09T10:07:15;1.73;;;0.70;;
3133;SDS011;1577;49.912;10.924;2022-09-09T10:09:42;3.33;;;0.80;;
3133;SDS011;1577;49.912;10.924;2022-09-09T10:19:39;2.33;;;0.90;;
3133;SDS011;1577;49.912;10.924;2022-09-09T10:33:16;1.23;;;0.60;;
3133;SDS011;1577;49.912;10.924;2022-09-09T10:36:19;2.23;;;0.70;;
3133;SDS011;1577;49.912;10.924;2022-09-09T10:39:12;1.77;;;0.80;;
3133;SDS011;1577;49.912;10.924;2022-09-09T10:42:07;1.37;;;0.93;;
3133;SDS011;1577;49.912;10.924;2022-09-09T10:47:27;3.80;;;0.70;;
3133;SDS011;1577;49.912;10.924;2022-09-09T10:55:26;1.67;;;0.70;;
3133;SDS011;1577;49.912;10.924;2022-09-09T10:58:01;3.47;;;0.70;;
3133;SDS011;1577;49.912;10.924;2022-09-09T11:00:46;1.30;;;0.70;;
3133;SDS011;1577;49.912;10.924;2022-09-09T11:03:22;1.03;;;0.60;;
3133;SDS011;1577;49.912;10.924;2022-09-09T11:06:00;3.10;;;0.70;;
3133;SDS011;1577;49.912;10.924;2022-09-09T11:08:32;1.00;;;0.60;;
3133;SDS011;1577;49.912;10.924;2022-09-09T11:11:09;1.97;;;0.70;;
3133;SDS011;1577;49.912;10.924;2022-09-09T11:18:46;2.87;;;0.90;;
3133;SDS011;1577;49.912;10.924;2022-09-09T11:21:17;1.00;;;0.60;;
3133;SDS011;1577;49.912;10.924;2022-09-09T11:23:55;2.87;;;0.67;;
3133;SDS011;1577;49.912;10.924;2022-09-09T11:26:37;3.47;;;0.63;;
3133;SDS011;1577;49.912;10.924;2022-09-09T11:34:44;2.17;;;0.60;;
3133;SDS011;1577;49.912;10.924;2022-09-09T11:37:26;2.40;;;1.10;;
3133;SDS011;1577;49.912;10.924;2022-09-09T11:40:19;7.37;;;0.80;;
3133;SDS011;1577;49.912;10.924;2022-09-09T11:42:48;1.60;;;0.77;;
3133;SDS011;1577;49.912;10.924;2022-09-09T11:45:21;5.17;;;0.70;;
3133;SDS011;1577;49.912;10.924;2022-09-09T11:47:54;3.00;;;0.70;;
3133;SDS011;1577;49.912;10.924;2022-09-09T11:52:47;2.27;;;0.80;;
3133;SDS011;1577;49.912;10.924;2022-09-09T11:55:24;1.70;;;0.60;;
3133;SDS011;1577;49.912;10.924;2022-09-09T11:58:00;5.47;;;0.80;;
3133;SDS011;1577;49.912;10.924;2022-09-09T12:00:34;2.10;;;0.70;;
3133;SDS011;1577;49.912;10.924;2022-09-09T12:06:10;2.30;;;1.00;;
3133;SDS011;1577;49.912;10.924;2022-09-09T12:08:44;4.30;;;0.73;;
3133;SDS011;1577;49.912;10.924;2022-09-09T12:11:23;2.13;;;0.60;;
3133;SDS011;1577;49.912;10.924;2022-09-09T12:13:57;1.77;;;0.60;;
3133;SDS011;1577;49.912;10.924;2022-09-09T12:16:33;2.20;;;0.57;;
3133;SDS011;1577;49.912;10.924;2022-09-09T12:19:03;2.00;;;0.70;;
3133;SDS011;1577;49.912;10.924;2022-09-09T12:24:23;2.97;;;0.50;;
3133;SDS011;1577;49.912;10.924;2022-09-09T12:27:05;1.17;;;0.50;;
3133;SDS011;1577;49.912;10.924;2022-09-09T12:32:28;0.70;;;0.40;;
3133;SDS011;1577;49.912;10.924;2022-09-09T12:34:55;0.67;;;0.40;;
3133;SDS011;1577;49.912;10.924;2022-09-09T12:37:29;1.03;;;0.50;;
3133;SDS011;1577;49.912;10.924;2022-09-09T12:42:28;1.03;;;0.50;;
3133;SDS011;1577;49.912;10.924;2022-09-09T12:47:21;1.53;;;0.50;;
3133;SDS011;1577;49.912;10.924;2022-09-09T12:49:55;1.23;;;0.50;;
3133;SDS011;1577;49.912;10.924;2022-09-09T12:55:04;3.73;;;0.50;;
3133;SDS011;1577;49.912;10.924;2022-09-09T12:57:35;0.93;;;0.50;;
3133;SDS011;1577;49.912;10.924;2022-09-09T13:00:07;0.80;;;0.40;;
3133;SDS011;1577;49.912;10.924;2022-09-09T13:02:49;1.20;;;0.70;;
3133;SDS011;1577;49.912;10.924;2022-09-09T13:05:17;1.47;;;0.40;;
3133;SDS011;1577;49.912;10.924;2022-09-09T13:07:45;1.07;;;0.50;;
3133;SDS011;1577;49.912;10.924;2022-09-09T13:10:11;1.10;;;0.60;;
3133;SDS011;1577;49.912;10.924;2022-09-09T13:12:37;1.00;;;0.50;;
3133;SDS011;1577;49.912;10.924;2022-09-09T13:15:04;1.37;;;0.50;;
3133;SDS011;1577;49.912;10.924;2022-09-09T13:17:35;1.57;;;0.70;;
3133;SDS011;1577;49.912;10.924;2022-09-09T13:20:01;2.70;;;0.50;;
3133;SDS011;1577;49.912;10.924;2022-09-09T13:22:37;1.00;;;0.50;;
3133;SDS011;1577;49.912;10.924;2022-09-09T13:27:35;0.90;;;0.40;;
3133;SDS011;1577;49.912;10.924;2022-09-09T13:35:29;0.73;;;0.40;;
3133;SDS011;1577;49.912;10.924;2022-09-09T13:37:55;2.40;;;0.60;;
3133;SDS011;1577;49.912;10.924;2022-09-09T13:40:22;1.23;;;0.60;;
3133;SDS011;1577;49.912;10.924;2022-09-09T13:42:51;1.10;;;0.40;;
3133;SDS011;1577;49.912;10.924;2022-09-09T13:45:20;1.93;;;0.70;;
3133;SDS011;1577;49.912;10.924;2022-09-09T13:47:48;2.10;;;0.87;;
3133;SDS011;1577;49.912;10.924;2022-09-09T13:50:27;1.00;;;0.50;;
3133;SDS011;1577;49.912;10.924;2022-09-09T13:52:54;0.80;;;0.60;;
3133;SDS011;1577;49.912;10.924;2022-09-09T13:55:23;1.37;;;0.50;;
3133;SDS011;1577;49.912;10.924;2022-09-09T13:57:50;0.97;;;0.50;;
3133;SDS011;1577;49.912;10.924;2022-09-09T14:00:24;1.00;;;0.40;;
3133;SDS011;1577;49.912;10.924;2022-09-09T14:02:50;3.33;;;0.70;;
3133;SDS011;1577;49.912;10.924;2022-09-09T14:05:18;0.90;;;0.50;;
3133;SDS011;1577;49.912;10.924;2022-09-09T14:07:44;1.97;;;0.67;;
3133;SDS011;1577;49.912;10.924;2022-09-09T14:10:10;0.80;;;0.50;;
3133;SDS011;1577;49.912;10.924;2022-09-09T14:12:37;1.90;;;0.50;;
3133;SDS011;1577;49.912;10.924;2022-09-09T14:15:03;1.10;;;0.50;;
3133;SDS011;1577;49.912;10.924;2022-09-09T14:17:30;1.30;;;0.60;;
3133;SDS011;1577;49.912;10.924;2022-09-09T14:19:56;6.93;;;1.43;;
3133;SDS011;1577;49.912;10.924;2022-09-09T14:22:22;1.27;;;0.60;;
3133;SDS011;1577;49.912;10.924;2022-09-09T14:24:48;2.80;;;0.70;;
3133;SDS011;1577;49.912;10.924;2022-09-09T14:27:16;2.50;;;0.60;;
3133;SDS011;1577;49.912;10.924;2022-09-09T14:29:41;2.13;;;0.87;;
3133;SDS011;1577;49.912;10.924;2022-09-09T14:32:09;1.70;;;0.70;;
3133;SDS011;1577;49.912;10.924;2022-09-09T14:34:34;1.20;;;0.60;;
3133;SDS011;1577;49.912;10.924;2022-09-09T14:37:00;1.37;;;0.63;;
3133;SDS011;1577;49.912;10.924;2022-09-09T14:39:26;1.93;;;0.60;;
3133;SDS011;1577;49.912;10.924;2022-09-09T14:41:52;1.63;;;0.77;;
3133;SDS011;1577;49.912;10.924;2022-09-09T14:44:17;1.30;;;0.90;;
3133;SDS011;1577;49.912;10.924;2022-09-09T14:46:43;1.47;;;0.60;;
3133;SDS011;1577;49.912;10.924;2022-09-09T14:49:09;3.00;;;0.67;;
3133;SDS011;1577;49.912;10.924;2022-09-09T14:51:38;1.47;;;0.67;;
3133;SDS011;1577;49.912;10.924;2022-09-09T14:54:04;2.97;;;0.70;;
3133;SDS011;1577;49.912;10.924;2022-09-09T14:56:31;1.00;;;0.60;;
3133;SDS011;1577;49.912;10.924;2022-09-09T14:58:59;4.47;;;0.70;;
3133;SDS011;1577;49.912;10.924;2022-09-09T15:01:25;1.90;;;0.83;;
3133;SDS011;1577;49.912;10.924;2022-09-09T15:04:01;1.27;;;0.80;;
3133;SDS011;1577;49.912;10.924;2022-09-09T15:06:30;2.40;;;0.87;;
3133;SDS011;1577;49.912;10.924;2022-09-09T15:08:58;1.67;;;0.67;;
3133;SDS011;1577;49.912;10.924;2022-09-09T15:11:29;0.80;;;0.50;;
3133;SDS011;1577;49.912;10.924;2022-09-09T15:13:57;1.10;;;0.60;;
3133;SDS011;1577;49.912;10.924;2022-09-09T15:16:24;2.60;;;0.90;;
3133;SDS011;1577;49.912;10.924;2022-09-09T15:18:53;1.20;;;0.70;;
3133;SDS011;1577;49.912;10.924;2022-09-09T15:21:21;2.70;;;0.50;;
3133;SDS011;1577;49.912;10.924;2022-09-09T15:23:48;2.20;;;0.50;;
3133;SDS011;1577;49.912;10.924;2022-09-09T15:26:14;1.30;;;0.60;;
3133;SDS011;1577;49.912;10.924;2022-09-09T15:28:41;0.80;;;0.60;;
3133;SDS011;1577;49.912;10.924;2022-09-09T15:31:12;1.17;;;0.50;;
3133;SDS011;1577;49.912;10.924;2022-09-09T15:33:46;1.10;;;0.43;;
3133;SDS011;1577;49.912;10.924;2022-09-09T15:36:17;1.60;;;0.70;;
3133;SDS011;1577;49.912;10.924;2022-09-09T15:38:45;2.37;;;0.60;;
3133;SDS011;1577;49.912;10.924;2022-09-09T15:41:12;1.20;;;0.60;;
3133;SDS011;1577;49.912;10.924;2022-09-09T15:43:38;0.87;;;0.47;;
3133;SDS011;1577;49.912;10.924;2022-09-09T15:48:41;1.20;;;0.50;;
3133;SDS011;1577;49.912;10.924;2022-09-09T15:51:09;1.87;;;1.27;;
3133;SDS011;1577;49.912;10.924;2022-09-09T15:53:35;2.43;;;0.67;;
3133;SDS011;1577;49.912;10.924;2022-09-09T15:56:04;2.73;;;0.70;;
3133;SDS011;1577;49.912;10.924;2022-09-09T15:58:31;0.80;;;0.50;;
3133;SDS011;1577;49.912;10.924;2022-09-09T16:01:07;1.00;;;0.50;;
3133;SDS011;1577;49.912;10.924;2022-09-09T16:03:34;1.53;;;0.60;;
3133;SDS011;1577;49.912;10.924;2022-09-09T16:06:04;0.90;;;0.50;;
3133;SDS011;1577;49.912;10.924;2022-09-09T16:08:34;0.80;;;0.50;;
3133;SDS011;1577;49.912;10.924;2022-09-09T16:11:04;1.60;;;1.17;;
3133;SDS011;1577;49.912;10.924;2022-09-09T16:13:37;2.70;;;1.00;;
3133;SDS011;1577;49.912;10.924;2022-09-09T16:16:05;2.50;;;0.60;;
3133;SDS011;1577;49.912;10.924;2022-09-09T16:18:44;2.60;;;0.80;;
3133;SDS011;1577;49.912;10.924;2022-09-09T16:21:15;1.53;;;0.70;;
3133;SDS011;1577;49.912;10.924;2022-09-09T16:23:43;3.10;;;1.50;;
3133;SDS011;1577;49.912;10.924;2022-09-09T16:26:13;2.50;;;0.70;;
3133;SDS011;1577;49.912;10.924;2022-09-09T16:28:40;2.93;;;0.60;;
3133;SDS011;1577;49.912;10.924;2022-09-09T16:31:07;0.90;;;0.50;;
3133;SDS011;1577;49.912;10.924;2022-09-09T16:33:37;1.30;;;0.50;;
3133;SDS011;1577;49.912;10.924;2022-09-09T16:36:09;1.27;;;0.60;;
3133;SDS011;1577;49.912;10.924;2022-09-09T16:38:42;1.37;;;0.80;;
3133;SDS011;1577;49.912;10.924;2022-09-09T16:41:08;2.60;;;0.60;;
3133;SDS011;1577;49.912;10.924;2022-09-09T16:43:36;1.63;;;0.60;;
3133;SDS011;1577;49.912;10.924;2022-09-09T16:46:02;2.10;;;0.67;;
3133;SDS011;1577;49.912;10.924;2022-09-09T16:48:35;2.10;;;0.67;;
3133;SDS011;1577;49.912;10.924;2022-09-09T16:51:05;2.73;;;0.97;;
3133;SDS011;1577;49.912;10.924;2022-09-09T16:53:33;2.10;;;0.93;;
3133;SDS011;1577;49.912;10.924;2022-09-09T16:56:09;1.80;;;0.60;;
3133;SDS011;1577;49.912;10.924;2022-09-09T16:58:36;1.67;;;0.53;;
3133;SDS011;1577;49.912;10.924;2022-09-09T17:01:02;1.30;;;0.70;;
3133;SDS011;1577;49.912;10.924;2022-09-09T17:03:29;1.70;;;0.90;;
3133;SDS011;1577;49.912;10.924;2022-09-09T17:05:56;3.30;;;0.67;;
3133;SDS011;1577;49.912;10.924;2022-09-09T17:08:22;1.60;;;0.73;;
3133;SDS011;1577;49.912;10.924;2022-09-09T17:10:49;1.47;;;0.60;;
3133;SDS011;1577;49.912;10.924;2022-09-09T17:13:15;2.10;;;0.67;;
3133;SDS011;1577;49.912;10.924;2022-09-09T17:15:44;2.17;;;0.70;;
3133;SDS011;1577;49.912;10.924;2022-09-09T17:18:11;1.10;;;0.60;;
3133;SDS011;1577;49.912;10.924;2022-09-09T17:20:38;1.20;;;0.70;;
3133;SDS011;1577;49.912;10.924;2022-09-09T17:23:05;3.13;;;0.80;;
3133;SDS011;1577;49.912;10.924;2022-09-09T17:25:32;1.97;;;0.80;;